sensor_id;sensor_type;location;lat;lon;timestamp;temperature;humidity
21214;DHT22;10764;50.850;2.904;2022-08-21T00:01:42;23.70;49.60
21214;DHT22;10764;50.850;2.904;2022-08-21T00:04:10;23.70;48.30
21214;DHT22;10764;50.850;2.904;2022-08-21T00:06:40;23.60;48.30
21214;DHT22;10764;50.850;2.904;2022-08-21T00:09:08;23.70;48.50
21214;DHT22;10764;50.850;2.904;2022-08-21T00:11:37;23.60;48.70
21214;DHT22;10764;50.850;2.904;2022-08-21T00:14:06;23.50;48.70
21214;DHT22;10764;50.850;2.904;2022-08-21T00:16:34;23.50;48.80
21214;DHT22;10764;50.850;2.904;2022-08-21T00:23:55;23.70;49.10
21214;DHT22;10764;50.850;2.904;2022-08-21T00:26:22;23.60;49.10
21214;DHT22;10764;50.850;2.904;2022-08-21T00:28:49;23.80;49.30
21214;DHT22;10764;50.850;2.904;2022-08-21T00:31:16;23.50;49.30
21214;DHT22;10764;50.850;2.904;2022-08-21T00:33:45;23.70;49.60
21214;DHT22;10764;50.850;2.904;2022-08-21T00:36:12;23.60;49.40
21214;DHT22;10764;50.850;2.904;2022-08-21T00:38:39;23.60;49.50
21214;DHT22;10764;50.850;2.904;2022-08-21T00:41:09;23.70;49.60
21214;DHT22;10764;50.850;2.904;2022-08-21T00:43:56;23.70;49.70
21214;DHT22;10764;50.850;2.904;2022-08-21T00:46:23;23.60;49.70
21214;DHT22;10764;50.850;2.904;2022-08-21T00:48:54;23.50;49.70
21214;DHT22;10764;50.850;2.904;2022-08-21T00:51:31;23.60;49.80
21214;DHT22;10764;50.850;2.904;2022-08-21T00:54:05;23.40;50.40
21214;DHT22;10764;50.850;2.904;2022-08-21T00:56:48;23.60;50.80
21214;DHT22;10764;50.850;2.904;2022-08-21T00:59:18;23.20;50.40
21214;DHT22;10764;50.850;2.904;2022-08-21T01:01:46;23.70;50.80
21214;DHT22;10764;50.850;2.904;2022-08-21T01:04:13;23.60;50.10
21214;DHT22;10764;50.850;2.904;2022-08-21T01:06:40;23.70;50.20
21214;DHT22;10764;50.850;2.904;2022-08-21T01:09:07;23.70;50.20
21214;DHT22;10764;50.850;2.904;2022-08-21T01:11:34;23.60;50.20
21214;DHT22;10764;50.850;2.904;2022-08-21T01:14:03;23.70;50.30
21214;DHT22;10764;50.850;2.904;2022-08-21T01:16:30;23.60;50.30
21214;DHT22;10764;50.850;2.904;2022-08-21T01:18:57;23.60;50.40
21214;DHT22;10764;50.850;2.904;2022-08-21T01:21:26;23.70;50.50
21214;DHT22;10764;50.850;2.904;2022-08-21T01:23:55;23.70;50.50
21214;DHT22;10764;50.850;2.904;2022-08-21T01:26:26;23.70;50.50
21214;DHT22;10764;50.850;2.904;2022-08-21T01:29:09;23.70;50.60
21214;DHT22;10764;50.850;2.904;2022-08-21T01:31:38;23.70;50.60
21214;DHT22;10764;50.850;2.904;2022-08-21T01:34:06;23.60;50.60
21214;DHT22;10764;50.850;2.904;2022-08-21T01:36:34;23.70;50.70
21214;DHT22;10764;50.850;2.904;2022-08-21T01:39:01;23.70;50.70
21214;DHT22;10764;50.850;2.904;2022-08-21T01:41:28;23.70;50.70
21214;DHT22;10764;50.850;2.904;2022-08-21T01:43:55;23.60;50.70
21214;DHT22;10764;50.850;2.904;2022-08-21T01:46:21;23.70;50.80
21214;DHT22;10764;50.850;2.904;2022-08-21T01:48:48;23.70;50.80
21214;DHT22;10764;50.850;2.904;2022-08-21T01:51:15;23.70;50.80
21214;DHT22;10764;50.850;2.904;2022-08-21T01:53:42;23.60;50.80
21214;DHT22;10764;50.850;2.904;2022-08-21T01:56:12;23.70;50.90
21214;DHT22;10764;50.850;2.904;2022-08-21T01:58:41;23.70;50.90
21214;DHT22;10764;50.850;2.904;2022-08-21T02:01:09;23.60;50.80
21214;DHT22;10764;50.850;2.904;2022-08-21T02:03:37;23.70;50.90
21214;DHT22;10764;50.850;2.904;2022-08-21T02:06:05;23.70;50.90
21214;DHT22;10764;50.850;2.904;2022-08-21T02:08:33;23.70;51.00
21214;DHT22;10764;50.850;2.904;2022-08-21T02:11:00;23.50;50.90
21214;DHT22;10764;50.850;2.904;2022-08-21T02:13:27;23.70;51.10
21214;DHT22;10764;50.850;2.904;2022-08-21T02:18:22;23.60;51.00
21214;DHT22;10764;50.850;2.904;2022-08-21T02:20:49;23.70;51.10
21214;DHT22;10764;50.850;2.904;2022-08-21T02:23:22;23.70;51.10
21214;DHT22;10764;50.850;2.904;2022-08-21T02:26:04;23.70;51.20
21214;DHT22;10764;50.850;2.904;2022-08-21T02:28:31;23.50;51.90
21214;DHT22;10764;50.850;2.904;2022-08-21T02:30:59;23.60;51.10
21214;DHT22;10764;50.850;2.904;2022-08-21T02:33:26;23.60;51.10
21214;DHT22;10764;50.850;2.904;2022-08-21T02:35:53;23.60;52.20
21214;DHT22;10764;50.850;2.904;2022-08-21T02:38:25;23.50;51.20
21214;DHT22;10764;50.850;2.904;2022-08-21T02:40:53;23.60;51.20
21214;DHT22;10764;50.850;2.904;2022-08-21T02:43:22;23.70;51.30
21214;DHT22;10764;50.850;2.904;2022-08-21T02:45:50;23.70;51.30
21214;DHT22;10764;50.850;2.904;2022-08-21T02:48:20;23.60;51.30
21214;DHT22;10764;50.850;2.904;2022-08-21T02:50:56;23.60;51.30
21214;DHT22;10764;50.850;2.904;2022-08-21T02:53:24;23.60;51.80
21214;DHT22;10764;50.850;2.904;2022-08-21T02:55:52;23.70;51.40
21214;DHT22;10764;50.850;2.904;2022-08-21T02:58:27;23.60;51.30
21214;DHT22;10764;50.850;2.904;2022-08-21T03:00:54;23.70;51.40
21214;DHT22;10764;50.850;2.904;2022-08-21T03:03:21;23.70;51.40
21214;DHT22;10764;50.850;2.904;2022-08-21T03:05:49;23.70;51.40
21214;DHT22;10764;50.850;2.904;2022-08-21T03:08:17;23.60;51.50
21214;DHT22;10764;50.850;2.904;2022-08-21T03:10:47;23.80;51.50
21214;DHT22;10764;50.850;2.904;2022-08-21T03:13:15;23.60;52.10
21214;DHT22;10764;50.850;2.904;2022-08-21T03:15:43;23.60;51.50
21214;DHT22;10764;50.850;2.904;2022-08-21T03:18:11;23.60;51.50
21214;DHT22;10764;50.850;2.904;2022-08-21T03:20:40;23.70;51.60
21214;DHT22;10764;50.850;2.904;2022-08-21T03:23:08;23.70;51.70
21214;DHT22;10764;50.850;2.904;2022-08-21T03:25:42;23.60;51.60
21214;DHT22;10764;50.850;2.904;2022-08-21T03:28:13;23.70;51.80
21214;DHT22;10764;50.850;2.904;2022-08-21T03:30:42;23.40;51.60
21214;DHT22;10764;50.850;2.904;2022-08-21T03:33:09;23.60;51.70
21214;DHT22;10764;50.850;2.904;2022-08-21T03:35:42;23.60;51.70
21214;DHT22;10764;50.850;2.904;2022-08-21T03:38:09;23.50;51.70
21214;DHT22;10764;50.850;2.904;2022-08-21T03:40:36;23.70;51.90
21214;DHT22;10764;50.850;2.904;2022-08-21T03:43:03;23.60;51.80
21214;DHT22;10764;50.850;2.904;2022-08-21T03:45:31;23.60;51.90
21214;DHT22;10764;50.850;2.904;2022-08-21T03:48:01;23.70;52.00
21214;DHT22;10764;50.850;2.904;2022-08-21T03:50:32;23.60;52.00
21214;DHT22;10764;50.850;2.904;2022-08-21T03:53:00;23.50;52.00
21214;DHT22;10764;50.850;2.904;2022-08-21T03:55:27;23.40;51.90
21214;DHT22;10764;50.850;2.904;2022-08-21T03:57:54;23.50;52.00
21214;DHT22;10764;50.850;2.904;2022-08-21T04:00:23;23.70;52.10
21214;DHT22;10764;50.850;2.904;2022-08-21T04:02:50;23.70;52.10
21214;DHT22;10764;50.850;2.904;2022-08-21T04:05:19;23.50;52.00
21214;DHT22;10764;50.850;2.904;2022-08-21T04:07:59;23.80;53.10
21214;DHT22;10764;50.850;2.904;2022-08-21T04:10:27;23.80;52.20
21214;DHT22;10764;50.850;2.904;2022-08-21T04:12:55;23.50;52.00
21214;DHT22;10764;50.850;2.904;2022-08-21T04:15:24;23.60;52.30
21214;DHT22;10764;50.850;2.904;2022-08-21T04:17:51;23.50;52.10
21214;DHT22;10764;50.850;2.904;2022-08-21T04:20:19;23.70;52.20
21214;DHT22;10764;50.850;2.904;2022-08-21T04:22:46;23.70;52.20
21214;DHT22;10764;50.850;2.904;2022-08-21T04:25:15;23.60;53.20
21214;DHT22;10764;50.850;2.904;2022-08-21T04:27:42;23.70;52.20
21214;DHT22;10764;50.850;2.904;2022-08-21T04:30:10;23.50;52.10
21214;DHT22;10764;50.850;2.904;2022-08-21T04:32:37;23.60;52.10
21214;DHT22;10764;50.850;2.904;2022-08-21T04:35:08;23.60;52.20
21214;DHT22;10764;50.850;2.904;2022-08-21T04:37:36;23.40;52.10
21214;DHT22;10764;50.850;2.904;2022-08-21T04:40:10;23.60;52.20
21214;DHT22;10764;50.850;2.904;2022-08-21T04:42:45;23.70;52.30
21214;DHT22;10764;50.850;2.904;2022-08-21T04:45:21;23.60;52.30
21214;DHT22;10764;50.850;2.904;2022-08-21T04:47:51;23.70;52.30
21214;DHT22;10764;50.850;2.904;2022-08-21T04:50:22;23.60;52.30
21214;DHT22;10764;50.850;2.904;2022-08-21T04:53:04;23.50;52.10
21214;DHT22;10764;50.850;2.904;2022-08-21T04:55:32;23.60;53.20
21214;DHT22;10764;50.850;2.904;2022-08-21T04:57:59;23.60;53.30
21214;DHT22;10764;50.850;2.904;2022-08-21T05:00:26;23.60;52.20
21214;DHT22;10764;50.850;2.904;2022-08-21T05:02:55;23.40;52.20
21214;DHT22;10764;50.850;2.904;2022-08-21T05:05:28;23.60;53.00
21214;DHT22;10764;50.850;2.904;2022-08-21T05:07:57;23.50;52.20
21214;DHT22;10764;50.850;2.904;2022-08-21T05:10:25;23.60;52.20
21214;DHT22;10764;50.850;2.904;2022-08-21T05:12:52;23.70;52.30
21214;DHT22;10764;50.850;2.904;2022-08-21T05:15:20;23.40;52.10
21214;DHT22;10764;50.850;2.904;2022-08-21T05:17:47;23.60;53.20
21214;DHT22;10764;50.850;2.904;2022-08-21T05:20:27;23.40;53.30
21214;DHT22;10764;50.850;2.904;2022-08-21T05:22:54;24.70;53.50
21214;DHT22;10764;50.850;2.904;2022-08-21T05:27:49;23.50;52.20
21214;DHT22;10764;50.850;2.904;2022-08-21T05:30:18;23.70;52.30
21214;DHT22;10764;50.850;2.904;2022-08-21T05:32:46;23.70;53.10
21214;DHT22;10764;50.850;2.904;2022-08-21T05:35:14;23.60;52.30
21214;DHT22;10764;50.850;2.904;2022-08-21T05:37:41;23.50;52.30
21214;DHT22;10764;50.850;2.904;2022-08-21T05:40:08;23.70;52.40
21214;DHT22;10764;50.850;2.904;2022-08-21T05:42:50;23.70;52.40
21214;DHT22;10764;50.850;2.904;2022-08-21T05:45:21;23.50;52.40
21214;DHT22;10764;50.850;2.904;2022-08-21T05:48:10;23.70;52.60
21214;DHT22;10764;50.850;2.904;2022-08-21T05:50:37;23.60;52.50
21214;DHT22;10764;50.850;2.904;2022-08-21T05:53:05;23.60;52.50
21214;DHT22;10764;50.850;2.904;2022-08-21T05:55:35;23.80;52.70
21214;DHT22;10764;50.850;2.904;2022-08-21T05:58:10;23.60;52.80
21214;DHT22;10764;50.850;2.904;2022-08-21T06:00:37;23.70;52.70
21214;DHT22;10764;50.850;2.904;2022-08-21T06:03:11;23.60;52.70
21214;DHT22;10764;50.850;2.904;2022-08-21T06:05:37;23.60;52.70
21214;DHT22;10764;50.850;2.904;2022-08-21T06:08:04;23.80;52.80
21214;DHT22;10764;50.850;2.904;2022-08-21T06:10:32;23.80;52.80
21214;DHT22;10764;50.850;2.904;2022-08-21T06:12:58;23.60;52.80
21214;DHT22;10764;50.850;2.904;2022-08-21T06:15:26;23.60;52.80
21214;DHT22;10764;50.850;2.904;2022-08-21T06:17:54;23.70;52.80
21214;DHT22;10764;50.850;2.904;2022-08-21T06:20:22;23.60;52.70
21214;DHT22;10764;50.850;2.904;2022-08-21T06:22:49;23.70;52.90
21214;DHT22;10764;50.850;2.904;2022-08-21T06:25:16;23.70;52.80
21214;DHT22;10764;50.850;2.904;2022-08-21T06:27:43;23.60;52.70
21214;DHT22;10764;50.850;2.904;2022-08-21T06:30:10;23.80;52.80
21214;DHT22;10764;50.850;2.904;2022-08-21T06:32:37;23.60;52.70
21214;DHT22;10764;50.850;2.904;2022-08-21T06:35:05;23.80;52.90
21214;DHT22;10764;50.850;2.904;2022-08-21T06:37:32;27.80;55.30
21214;DHT22;10764;50.850;2.904;2022-08-21T06:39:59;23.70;53.70
21214;DHT22;10764;50.850;2.904;2022-08-21T06:42:27;23.70;52.90
21214;DHT22;10764;50.850;2.904;2022-08-21T06:44:54;23.70;53.00
21214;DHT22;10764;50.850;2.904;2022-08-21T06:47:23;23.70;53.70
21214;DHT22;10764;50.850;2.904;2022-08-21T06:49:50;23.60;53.00
21214;DHT22;10764;50.850;2.904;2022-08-21T06:52:17;23.70;54.00
21214;DHT22;10764;50.850;2.904;2022-08-21T06:54:44;24.60;54.60
21214;DHT22;10764;50.850;2.904;2022-08-21T06:57:10;23.70;53.00
21214;DHT22;10764;50.850;2.904;2022-08-21T06:59:37;23.80;53.10
21214;DHT22;10764;50.850;2.904;2022-08-21T07:02:04;23.60;52.90
21214;DHT22;10764;50.850;2.904;2022-08-21T07:04:31;23.50;53.00
21214;DHT22;10764;50.850;2.904;2022-08-21T07:06:58;23.70;53.20
21214;DHT22;10764;50.850;2.904;2022-08-21T07:09:25;23.70;53.50
21214;DHT22;10764;50.850;2.904;2022-08-21T07:11:54;23.90;54.00
21214;DHT22;10764;50.850;2.904;2022-08-21T07:14:22;23.70;54.30
21214;DHT22;10764;50.850;2.904;2022-08-21T07:16:49;23.70;54.60
21214;DHT22;10764;50.850;2.904;2022-08-21T07:19:17;23.90;54.90
21214;DHT22;10764;50.850;2.904;2022-08-21T07:21:44;23.90;55.10
21214;DHT22;10764;50.850;2.904;2022-08-21T07:24:11;23.60;54.90
21214;DHT22;10764;50.850;2.904;2022-08-21T07:26:39;23.90;55.10
21214;DHT22;10764;50.850;2.904;2022-08-21T07:29:06;23.70;55.00
21214;DHT22;10764;50.850;2.904;2022-08-21T07:31:33;23.90;55.10
21214;DHT22;10764;50.850;2.904;2022-08-21T07:38:58;23.90;54.90
21214;DHT22;10764;50.850;2.904;2022-08-21T07:41:27;23.80;54.80
21214;DHT22;10764;50.850;2.904;2022-08-21T07:46:27;24.00;54.80
21214;DHT22;10764;50.850;2.904;2022-08-21T07:48:54;23.90;54.60
21214;DHT22;10764;50.850;2.904;2022-08-21T07:51:25;24.00;54.60
21214;DHT22;10764;50.850;2.904;2022-08-21T07:53:55;23.80;54.50
21214;DHT22;10764;50.850;2.904;2022-08-21T07:56:22;23.90;54.50
21214;DHT22;10764;50.850;2.904;2022-08-21T07:58:49;23.80;54.40
21214;DHT22;10764;50.850;2.904;2022-08-21T08:06:12;24.00;54.40
21214;DHT22;10764;50.850;2.904;2022-08-21T08:08:40;24.00;54.40
21214;DHT22;10764;50.850;2.904;2022-08-21T08:11:08;24.10;54.40
21214;DHT22;10764;50.850;2.904;2022-08-21T08:13:45;24.00;54.30
21214;DHT22;10764;50.850;2.904;2022-08-21T08:16:12;24.10;54.40
21214;DHT22;10764;50.850;2.904;2022-08-21T08:18:39;23.70;54.30
21214;DHT22;10764;50.850;2.904;2022-08-21T08:23:33;24.00;54.20
21214;DHT22;10764;50.850;2.904;2022-08-21T08:26:00;24.00;54.20
21214;DHT22;10764;50.850;2.904;2022-08-21T08:28:30;24.00;54.20
21214;DHT22;10764;50.850;2.904;2022-08-21T08:30:59;23.90;54.00
21214;DHT22;10764;50.850;2.904;2022-08-21T08:33:27;24.00;54.20
21214;DHT22;10764;50.850;2.904;2022-08-21T08:35:54;23.90;54.00
21214;DHT22;10764;50.850;2.904;2022-08-21T08:38:23;24.10;54.10
21214;DHT22;10764;50.850;2.904;2022-08-21T08:41:29;24.10;54.10
21214;DHT22;10764;50.850;2.904;2022-08-21T08:44:03;24.10;54.10
21214;DHT22;10764;50.850;2.904;2022-08-21T08:46:44;23.90;53.90
21214;DHT22;10764;50.850;2.904;2022-08-21T08:52:05;24.10;53.90
21214;DHT22;10764;50.850;2.904;2022-08-21T08:54:40;23.90;53.80
21214;DHT22;10764;50.850;2.904;2022-08-21T08:57:18;23.90;53.80
21214;DHT22;10764;50.850;2.904;2022-08-21T08:59:50;24.00;54.30
21214;DHT22;10764;50.850;2.904;2022-08-21T09:02:19;24.00;53.80
21214;DHT22;10764;50.850;2.904;2022-08-21T09:04:49;24.00;53.80
21214;DHT22;10764;50.850;2.904;2022-08-21T09:07:45;23.90;53.70
21214;DHT22;10764;50.850;2.904;2022-08-21T09:10:22;24.10;53.80
21214;DHT22;10764;50.850;2.904;2022-08-21T09:16:19;24.10;53.70
21214;DHT22;10764;50.850;2.904;2022-08-21T09:19:12;24.00;53.70
21214;DHT22;10764;50.850;2.904;2022-08-21T09:22:25;24.10;54.20
21214;DHT22;10764;50.850;2.904;2022-08-21T09:25:15;24.00;54.40
21214;DHT22;10764;50.850;2.904;2022-08-21T09:27:45;24.10;54.10
21214;DHT22;10764;50.850;2.904;2022-08-21T09:30:12;24.00;53.50
21214;DHT22;10764;50.850;2.904;2022-08-21T09:32:39;24.10;53.60
21214;DHT22;10764;50.850;2.904;2022-08-21T09:35:13;24.00;53.50
21214;DHT22;10764;50.850;2.904;2022-08-21T09:43:22;24.00;54.70
21214;DHT22;10764;50.850;2.904;2022-08-21T09:48:47;24.00;54.00
21214;DHT22;10764;50.850;2.904;2022-08-21T09:51:18;24.00;53.90
21214;DHT22;10764;50.850;2.904;2022-08-21T09:56:28;23.90;53.20
21214;DHT22;10764;50.850;2.904;2022-08-21T09:59:20;24.00;53.90
21214;DHT22;10764;50.850;2.904;2022-08-21T10:01:52;24.00;53.30
21214;DHT22;10764;50.850;2.904;2022-08-21T10:04:23;24.10;53.30
21214;DHT22;10764;50.850;2.904;2022-08-21T10:06:50;24.10;53.30
21214;DHT22;10764;50.850;2.904;2022-08-21T10:09:21;24.10;53.20
21214;DHT22;10764;50.850;2.904;2022-08-21T10:12:21;24.00;53.20
21214;DHT22;10764;50.850;2.904;2022-08-21T10:17:36;24.10;53.10
21214;DHT22;10764;50.850;2.904;2022-08-21T10:22:38;24.00;53.80
21214;DHT22;10764;50.850;2.904;2022-08-21T10:28:10;23.90;52.90
21214;DHT22;10764;50.850;2.904;2022-08-21T10:31:09;24.10;53.00
21214;DHT22;10764;50.850;2.904;2022-08-21T10:36:34;24.00;53.40
21214;DHT22;10764;50.850;2.904;2022-08-21T10:47:55;24.20;53.30
21214;DHT22;10764;50.850;2.904;2022-08-21T10:56:25;24.10;53.20
21214;DHT22;10764;50.850;2.904;2022-08-21T10:59:26;24.10;53.10
21214;DHT22;10764;50.850;2.904;2022-08-21T11:01:57;24.00;53.10
21214;DHT22;10764;50.850;2.904;2022-08-21T11:04:34;23.90;52.50
21214;DHT22;10764;50.850;2.904;2022-08-21T11:07:36;24.00;53.20
21214;DHT22;10764;50.850;2.904;2022-08-21T11:10:18;24.00;52.60
21214;DHT22;10764;50.850;2.904;2022-08-21T11:13:02;26.10;54.40
21214;DHT22;10764;50.850;2.904;2022-08-21T11:15:38;24.10;52.60
21214;DHT22;10764;50.850;2.904;2022-08-21T11:23:53;24.10;53.10
21214;DHT22;10764;50.850;2.904;2022-08-21T11:29:00;24.10;53.50
21214;DHT22;10764;50.850;2.904;2022-08-21T11:31:53;24.10;53.30
21214;DHT22;10764;50.850;2.904;2022-08-21T11:43:17;24.10;52.60
21214;DHT22;10764;50.850;2.904;2022-08-21T11:45:47;24.10;53.10
21214;DHT22;10764;50.850;2.904;2022-08-21T11:48:43;24.10;52.60
21214;DHT22;10764;50.850;2.904;2022-08-21T11:51:21;24.00;53.10
21214;DHT22;10764;50.850;2.904;2022-08-21T11:53:56;24.00;52.60
21214;DHT22;10764;50.850;2.904;2022-08-21T11:56:31;27.40;55.20
21214;DHT22;10764;50.850;2.904;2022-08-21T11:59:04;24.10;52.60
21214;DHT22;10764;50.850;2.904;2022-08-21T12:01:43;24.10;52.50
21214;DHT22;10764;50.850;2.904;2022-08-21T12:04:30;24.00;52.50
21214;DHT22;10764;50.850;2.904;2022-08-21T12:07:15;24.10;53.30
21214;DHT22;10764;50.850;2.904;2022-08-21T12:09:53;24.10;52.50
21214;DHT22;10764;50.850;2.904;2022-08-21T12:12:30;24.10;52.50
21214;DHT22;10764;50.850;2.904;2022-08-21T12:18:28;24.00;52.30
21214;DHT22;10764;50.850;2.904;2022-08-21T12:21:16;24.10;52.90
21214;DHT22;10764;50.850;2.904;2022-08-21T12:24:15;24.10;52.30
21214;DHT22;10764;50.850;2.904;2022-08-21T12:26:55;24.20;52.40
21214;DHT22;10764;50.850;2.904;2022-08-21T12:32:01;24.00;52.30
21214;DHT22;10764;50.850;2.904;2022-08-21T12:34:38;24.10;52.80
21214;DHT22;10764;50.850;2.904;2022-08-21T12:37:18;24.10;52.20
21214;DHT22;10764;50.850;2.904;2022-08-21T12:39:48;24.10;52.20
21214;DHT22;10764;50.850;2.904;2022-08-21T12:42:20;24.40;53.00
21214;DHT22;10764;50.850;2.904;2022-08-21T12:44:55;24.10;52.20
21214;DHT22;10764;50.850;2.904;2022-08-21T12:47:36;24.10;52.80
21214;DHT22;10764;50.850;2.904;2022-08-21T12:50:14;26.70;54.30
21214;DHT22;10764;50.850;2.904;2022-08-21T12:52:56;24.00;52.00
21214;DHT22;10764;50.850;2.904;2022-08-21T12:55:30;24.10;52.80
21214;DHT22;10764;50.850;2.904;2022-08-21T12:57:57;24.10;52.70
21214;DHT22;10764;50.850;2.904;2022-08-21T13:00:28;24.10;52.80
21214;DHT22;10764;50.850;2.904;2022-08-21T13:02:56;24.10;52.00
21214;DHT22;10764;50.850;2.904;2022-08-21T13:07:55;25.60;52.90
21214;DHT22;10764;50.850;2.904;2022-08-21T13:10:29;24.10;52.00
21214;DHT22;10764;50.850;2.904;2022-08-21T13:13:03;24.10;52.70
21214;DHT22;10764;50.850;2.904;2022-08-21T13:15:40;24.10;52.60
21214;DHT22;10764;50.850;2.904;2022-08-21T13:18:27;24.20;52.10
21214;DHT22;10764;50.850;2.904;2022-08-21T13:21:31;24.40;52.90
21214;DHT22;10764;50.850;2.904;2022-08-21T13:24:25;24.10;52.70
21214;DHT22;10764;50.850;2.904;2022-08-21T13:27:21;24.00;52.20
21214;DHT22;10764;50.850;2.904;2022-08-21T13:32:30;24.00;52.30
21214;DHT22;10764;50.850;2.904;2022-08-21T13:35:07;24.10;53.00
21214;DHT22;10764;50.850;2.904;2022-08-21T13:37:35;24.00;52.90
21214;DHT22;10764;50.850;2.904;2022-08-21T13:40:02;24.00;52.20
21214;DHT22;10764;50.850;2.904;2022-08-21T13:42:33;24.10;53.00
21214;DHT22;10764;50.850;2.904;2022-08-21T13:45:00;24.10;52.30
21214;DHT22;10764;50.850;2.904;2022-08-21T13:47:27;24.00;52.30
21214;DHT22;10764;50.850;2.904;2022-08-21T13:49:54;24.10;53.20
21214;DHT22;10764;50.850;2.904;2022-08-21T13:52:26;24.00;52.20
21214;DHT22;10764;50.850;2.904;2022-08-21T13:54:59;24.10;52.20
21214;DHT22;10764;50.850;2.904;2022-08-21T13:57:32;24.10;52.80
21214;DHT22;10764;50.850;2.904;2022-08-21T14:00:17;24.10;52.80
21214;DHT22;10764;50.850;2.904;2022-08-21T14:02:47;24.10;52.20
21214;DHT22;10764;50.850;2.904;2022-08-21T14:05:25;24.10;52.90
21214;DHT22;10764;50.850;2.904;2022-08-21T14:08:05;24.10;52.10
21214;DHT22;10764;50.850;2.904;2022-08-21T14:10:36;27.10;53.90
21214;DHT22;10764;50.850;2.904;2022-08-21T14:16:14;24.10;52.70
21214;DHT22;10764;50.850;2.904;2022-08-21T14:19:07;24.20;52.20
21214;DHT22;10764;50.850;2.904;2022-08-21T14:21:37;24.10;52.80
21214;DHT22;10764;50.850;2.904;2022-08-21T14:24:09;24.10;52.20
21214;DHT22;10764;50.850;2.904;2022-08-21T14:26:46;24.10;52.20
21214;DHT22;10764;50.850;2.904;2022-08-21T14:29:17;24.00;52.20
21214;DHT22;10764;50.850;2.904;2022-08-21T14:31:58;24.10;53.00
21214;DHT22;10764;50.850;2.904;2022-08-21T14:34:27;24.10;53.00
21214;DHT22;10764;50.850;2.904;2022-08-21T14:37:01;24.10;52.90
21214;DHT22;10764;50.850;2.904;2022-08-21T14:39:28;24.10;53.20
21214;DHT22;10764;50.850;2.904;2022-08-21T14:41:57;24.00;52.20
21214;DHT22;10764;50.850;2.904;2022-08-21T14:44:24;24.10;53.00
21214;DHT22;10764;50.850;2.904;2022-08-21T14:46:51;24.10;53.10
21214;DHT22;10764;50.850;2.904;2022-08-21T14:49:26;24.10;52.20
21214;DHT22;10764;50.850;2.904;2022-08-21T14:51:58;24.10;52.80
21214;DHT22;10764;50.850;2.904;2022-08-21T14:54:27;24.10;52.80
21214;DHT22;10764;50.850;2.904;2022-08-21T14:57:06;24.10;53.00
21214;DHT22;10764;50.850;2.904;2022-08-21T14:59:34;24.10;52.30
21214;DHT22;10764;50.850;2.904;2022-08-21T15:02:02;23.50;52.60
21214;DHT22;10764;50.850;2.904;2022-08-21T15:04:31;24.00;52.20
21214;DHT22;10764;50.850;2.904;2022-08-21T15:06:58;24.10;52.30
21214;DHT22;10764;50.850;2.904;2022-08-21T15:09:25;24.10;52.30
21214;DHT22;10764;50.850;2.904;2022-08-21T15:11:53;24.10;52.30
21214;DHT22;10764;50.850;2.904;2022-08-21T15:14:24;24.00;52.30
21214;DHT22;10764;50.850;2.904;2022-08-21T15:16:52;26.90;54.60
21214;DHT22;10764;50.850;2.904;2022-08-21T15:19:19;24.10;52.30
21214;DHT22;10764;50.850;2.904;2022-08-21T15:24:14;24.10;52.30
21214;DHT22;10764;50.850;2.904;2022-08-21T15:26:41;24.10;52.30
21214;DHT22;10764;50.850;2.904;2022-08-21T15:29:09;24.10;52.30
21214;DHT22;10764;50.850;2.904;2022-08-21T15:32:34;24.10;52.30
21214;DHT22;10764;50.850;2.904;2022-08-21T15:37:03;24.10;52.20
21214;DHT22;10764;50.850;2.904;2022-08-21T15:44:40;24.00;52.10
21214;DHT22;10764;50.850;2.904;2022-08-21T15:47:18;23.90;52.10
21214;DHT22;10764;50.850;2.904;2022-08-21T15:49:45;24.10;52.90
21214;DHT22;10764;50.850;2.904;2022-08-21T15:52:17;24.80;53.40
21214;DHT22;10764;50.850;2.904;2022-08-21T15:54:45;24.10;52.20
21214;DHT22;10764;50.850;2.904;2022-08-21T15:57:14;24.10;52.20
21214;DHT22;10764;50.850;2.904;2022-08-21T15:59:43;23.90;52.10
21214;DHT22;10764;50.850;2.904;2022-08-21T16:02:15;26.00;53.90
21214;DHT22;10764;50.850;2.904;2022-08-21T16:04:42;24.00;53.00
21214;DHT22;10764;50.850;2.904;2022-08-21T16:07:09;23.90;52.10
21214;DHT22;10764;50.850;2.904;2022-08-21T16:09:36;24.00;52.20
21214;DHT22;10764;50.850;2.904;2022-08-21T16:12:05;24.00;52.20
21214;DHT22;10764;50.850;2.904;2022-08-21T16:14:34;23.90;52.10
21214;DHT22;10764;50.850;2.904;2022-08-21T16:17:06;24.00;52.40
21214;DHT22;10764;50.850;2.904;2022-08-21T16:19:34;24.10;52.50
21214;DHT22;10764;50.850;2.904;2022-08-21T16:22:02;24.00;52.50
21214;DHT22;10764;50.850;2.904;2022-08-21T16:24:29;23.90;52.50
21214;DHT22;10764;50.850;2.904;2022-08-21T16:26:56;24.00;52.70
21214;DHT22;10764;50.850;2.904;2022-08-21T16:29:26;24.00;52.90
21214;DHT22;10764;50.850;2.904;2022-08-21T16:31:55;24.00;52.90
21214;DHT22;10764;50.850;2.904;2022-08-21T16:34:23;23.90;53.00
21214;DHT22;10764;50.850;2.904;2022-08-21T16:36:50;24.00;53.90
21214;DHT22;10764;50.850;2.904;2022-08-21T16:39:17;23.90;53.20
21214;DHT22;10764;50.850;2.904;2022-08-21T16:41:44;23.90;53.20
21214;DHT22;10764;50.850;2.904;2022-08-21T16:44:11;23.90;53.30
21214;DHT22;10764;50.850;2.904;2022-08-21T16:46:39;23.90;53.40
21214;DHT22;10764;50.850;2.904;2022-08-21T16:49:06;26.20;55.50
21214;DHT22;10764;50.850;2.904;2022-08-21T16:51:33;23.90;53.50
21214;DHT22;10764;50.850;2.904;2022-08-21T16:54:00;23.90;53.50
21214;DHT22;10764;50.850;2.904;2022-08-21T16:56:29;23.90;53.50
21214;DHT22;10764;50.850;2.904;2022-08-21T16:58:56;24.00;53.60
21214;DHT22;10764;50.850;2.904;2022-08-21T17:01:26;24.00;53.70
21214;DHT22;10764;50.850;2.904;2022-08-21T17:03:54;24.00;53.70
21214;DHT22;10764;50.850;2.904;2022-08-21T17:06:22;24.00;53.70
21214;DHT22;10764;50.850;2.904;2022-08-21T17:08:54;24.00;54.70
21214;DHT22;10764;50.850;2.904;2022-08-21T17:11:33;24.00;53.80
21214;DHT22;10764;50.850;2.904;2022-08-21T17:14:08;24.00;54.60
21214;DHT22;10764;50.850;2.904;2022-08-21T17:16:36;24.10;54.50
21214;DHT22;10764;50.850;2.904;2022-08-21T17:19:03;24.00;54.50
21214;DHT22;10764;50.850;2.904;2022-08-21T17:21:32;24.10;53.80
21214;DHT22;10764;50.850;2.904;2022-08-21T17:23:59;24.00;54.70
21214;DHT22;10764;50.850;2.904;2022-08-21T17:26:26;24.10;53.80
21214;DHT22;10764;50.850;2.904;2022-08-21T17:28:54;24.70;54.90
21214;DHT22;10764;50.850;2.904;2022-08-21T17:31:21;24.10;54.60
21214;DHT22;10764;50.850;2.904;2022-08-21T17:33:51;24.10;55.40
21214;DHT22;10764;50.850;2.904;2022-08-21T17:36:20;24.70;54.70
21214;DHT22;10764;50.850;2.904;2022-08-21T17:38:47;23.90;54.40
21214;DHT22;10764;50.850;2.904;2022-08-21T17:41:15;24.10;53.90
21214;DHT22;10764;50.850;2.904;2022-08-21T17:43:42;24.10;53.90
21214;DHT22;10764;50.850;2.904;2022-08-21T17:46:17;24.00;54.80